Time;durP1;ratioP1;P1;durP2;ratioP2;P2;SDS_P1;SDS_P2;PMS_P1;PMS_P2;Temp;Humidity;BMP_temperature;BMP_pressure;BME280_temperature;BME280_humidity;BME280_pressure;Samples;Min_cycle;Max_cycle;Signal;HPM_P1;HPM_P2
2023/03/20 00:01:09;;;;;;;3.83;3.42;;;;;;;;;;4564903;28;20036;-60
2023/03/20 00:03:19;;;;;;;4.35;3.65;;;;;;;;;;4564470;28;20089;-60
2023/03/20 00:05:30;;;;;;;3.90;3.50;;;;;;;;;;4567662;28;20221;-61
2023/03/20 00:07:41;;;;;;;4.20;3.63;;;;;;;;;;4567679;28;20085;-60
2023/03/20 00:09:52;;;;;;;3.92;3.30;;;;;;;;;;4564905;28;20038;-60
2023/03/20 00:12:02;;;;;;;3.90;3.50;;;;;;;;;;4566685;28;20133;-60
2023/03/20 00:14:15;;;;;;;3.92;3.35;;;;;;;;;;4566998;28;20086;-61
2023/03/20 00:16:30;;;;;;;4.03;3.50;;;;;;;;;;4548745;28;20634;-62
2023/03/20 00:18:41;;;;;;;3.40;3.10;;;;;;;;;;4549600;28;20044;-61
2023/03/20 00:20:52;;;;;;;4.18;3.35;;;;;;;;;;4565251;28;20040;-61
2023/03/20 00:23:03;;;;;;;4.10;3.58;;;;;;;;;;4567046;28;20040;-61
2023/03/20 00:25:15;;;;;;;3.78;3.22;;;;;;;;;;4551876;28;20382;-61
2023/03/20 00:27:25;;;;;;;3.75;3.28;;;;;;;;;;4569095;28;20622;-61
2023/03/20 00:29:37;;;;;;;4.03;3.28;;;;;;;;;;4567400;28;20093;-61
2023/03/20 00:31:47;;;;;;;3.40;3.10;;;;;;;;;;4548515;28;20531;-61
2023/03/20 00:34:00;;;;;;;3.88;3.10;;;;;;;;;;4547953;28;20583;-61
2023/03/20 00:36:10;;;;;;;3.72;3.33;;;;;;;;;;4550659;28;20639;-61
2023/03/20 00:38:21;;;;;;;3.85;3.45;;;;;;;;;;4566936;28;20035;-61
2023/03/20 00:40:31;;;;;;;3.75;3.15;;;;;;;;;;4552236;28;20102;-61
2023/03/20 00:42:44;;;;;;;3.83;3.42;;;;;;;;;;4566162;28;20040;-61
2023/03/20 00:44:55;;;;;;;4.15;3.47;;;;;;;;;;4566743;27;20622;-61
2023/03/20 00:47:11;;;;;;;4.13;3.50;;;;;;;;;;4547545;28;20033;-61
2023/03/20 00:49:25;;;;;;;3.88;3.22;;;;;;;;;;4567327;28;20572;-61
2023/03/20 00:51:37;;;;;;;4.75;3.60;;;;;;;;;;4582394;27;20061;-61
2023/03/20 00:53:47;;;;;;;3.72;3.22;;;;;;;;;;4565872;28;20032;-61
2023/03/20 00:55:58;;;;;;;3.80;3.30;;;;;;;;;;4568235;27;20064;-61
2023/03/20 00:58:09;;;;;;;4.25;3.38;;;;;;;;;;4565388;28;20125;-61
2023/03/20 01:00:22;;;;;;;4.13;3.22;;;;;;;;;;4563744;28;20083;-61
2023/03/20 01:02:33;;;;;;;3.53;3.20;;;;;;;;;;4568113;27;20118;-62
2023/03/20 01:04:43;;;;;;;4.03;3.30;;;;;;;;;;4565600;28;20533;-61
2023/03/20 01:06:54;;;;;;;4.03;3.30;;;;;;;;;;4567876;28;20040;-61
2023/03/20 01:09:04;;;;;;;4.07;3.40;;;;;;;;;;4565844;28;20024;-62
2023/03/20 01:11:21;;;;;;;3.92;3.50;;;;;;;;;;4565770;27;20032;-60
2023/03/20 01:13:32;;;;;;;;;;;;;;;;;;4567281;27;20035;-61
2023/03/20 01:15:43;;;;;;;4.53;3.58;;;;;;;;;;4563040;28;19939;-61
2023/03/20 01:17:53;;;;;;;4.05;3.40;;;;;;;;;;4547745;28;20599;-61
2023/03/20 01:20:09;;;;;;;4.05;3.20;;;;;;;;;;4565226;28;20955;-61
2023/03/20 01:22:19;;;;;;;4.55;3.33;;;;;;;;;;4565352;28;20168;-61
2023/03/20 01:24:30;;;;;;;4.20;3.30;;;;;;;;;;4565792;28;20031;-61
2023/03/20 01:26:42;;;;;;;4.00;3.42;;;;;;;;;;4566003;28;20036;-62
2023/03/20 01:28:53;;;;;;;4.05;3.30;;;;;;;;;;4582318;27;20068;-61
2023/03/20 01:31:03;;;;;;;3.97;3.50;;;;;;;;;;4567362;28;20110;-61
2023/03/20 01:33:18;;;;;;;3.97;3.38;;;;;;;;;;4564952;27;20139;-61
2023/03/20 01:35:30;;;;;;;4.18;3.42;;;;;;;;;;4563898;28;20032;-61
2023/03/20 01:37:45;;;;;;;3.83;3.40;;;;;;;;;;4558040;27;20029;-61
2023/03/20 01:39:56;;;;;;;3.88;3.35;;;;;;;;;;4568581;27;20807;-62
2023/03/20 01:42:07;;;;;;;4.18;3.55;;;;;;;;;;4537023;28;20029;-61
2023/03/20 01:44:29;;;;;;;4.82;3.72;;;;;;;;;;4547183;28;20024;-61
2023/03/20 01:46:42;;;;;;;4.45;3.40;;;;;;;;;;4553407;28;20044;-61
2023/03/20 01:49:08;;;;;;;4.18;3.35;;;;;;;;;;4532759;28;20033;-61
2023/03/20 01:51:31;;;;;;;4.30;3.80;;;;;;;;;;4532828;28;21192;-61
2023/03/20 01:53:48;;;;;;;4.18;3.67;;;;;;;;;;4551457;28;20032;-61
2023/03/20 01:56:00;;;;;;;4.75;3.70;;;;;;;;;;4544223;28;20317;-61
2023/03/20 01:58:22;;;;;;;4.03;3.47;;;;;;;;;;4526584;28;20073;-60
2023/03/20 02:00:34;;;;;;;4.95;3.95;;;;;;;;;;4549485;28;20043;-61
2023/03/20 02:02:46;;;;;;;4.03;3.60;;;;;;;;;;4549236;28;20040;-61
2023/03/20 02:05:10;;;;;;;4.82;3.72;;;;;;;;;;4547197;28;20142;-62
2023/03/20 02:07:21;;;;;;;4.97;3.67;;;;;;;;;;4550711;28;20566;-61
2023/03/20 02:09:48;;;;;;;4.35;3.78;;;;;;;;;;4552071;28;20077;-61
2023/03/20 02:12:04;;;;;;;5.90;4.30;;;;;;;;;;4534529;28;20041;-61
2023/03/20 02:14:15;;;;;;;5.60;4.18;;;;;;;;;;4550191;28;20091;-61
2023/03/20 02:16:35;;;;;;;4.93;3.75;;;;;;;;;;4548056;28;20804;-61
2023/03/20 02:19:01;;;;;;;4.60;4.10;;;;;;;;;;4546776;28;20226;-61
2023/03/20 02:21:15;;;;;;;5.03;4.00;;;;;;;;;;4548244;28;20040;-61
2023/03/20 02:24:03;;;;;;;5.03;3.88;;;;;;;;;;4547534;28;20180;-61
2023/03/20 02:26:21;;;;;;;4.85;4.00;;;;;;;;;;4552303;28;20130;-61
2023/03/20 02:28:32;;;;;;;5.38;4.25;;;;;;;;;;4567847;28;20035;-61
2023/03/20 02:31:10;;;;;;;4.63;4.07;;;;;;;;;;4541365;28;20282;-61
2023/03/20 02:33:49;;;;;;;4.40;3.70;;;;;;;;;;4547520;28;20032;-61
2023/03/20 02:36:37;;;;;;;4.47;3.97;;;;;;;;;;4566541;28;20591;-60
2023/03/20 02:38:53;;;;;;;5.20;4.00;;;;;;;;;;4565249;28;20587;-61
2023/03/20 02:41:27;;;;;;;5.07;3.75;;;;;;;;;;4559503;27;20267;-61
2023/03/20 02:43:59;;;;;;;4.75;3.90;;;;;;;;;;4550972;28;20143;-61
2023/03/20 02:46:24;;;;;;;4.45;3.80;;;;;;;;;;4551337;28;20037;-60
2023/03/20 02:49:16;;;;;;;4.88;3.88;;;;;;;;;;4583825;27;20031;-61
2023/03/20 02:52:05;;;;;;;5.40;4.15;;;;;;;;;;4563095;28;20071;-61
2023/03/20 02:54:26;;;;;;;5.05;3.95;;;;;;;;;;4504195;28;20034;-61
2023/03/20 02:56:57;;;;;;;5.30;4.10;;;;;;;;;;4548800;27;20059;-61
2023/03/20 02:59:19;;;;;;;4.82;3.97;;;;;;;;;;4566895;27;20040;-60
2023/03/20 03:01:34;;;;;;;5.32;4.20;;;;;;;;;;4581993;27;20040;-61
2023/03/20 03:03:49;;;;;;;4.43;4.00;;;;;;;;;;4567281;28;20044;-61
2023/03/20 03:06:09;;;;;;;5.53;4.60;;;;;;;;;;4550469;28;20044;-63
2023/03/20 03:08:21;;;;;;;5.00;4.47;;;;;;;;;;4567117;28;20036;-61
2023/03/20 03:10:35;;;;;;;6.35;5.22;;;;;;;;;;4545463;28;20116;-61
2023/03/20 03:12:48;;;;;;;6.80;5.70;;;;;;;;;;4562964;28;20020;-61
2023/03/20 03:15:06;;;;;;;4.72;4.15;;;;;;;;;;4553155;28;20702;-61
2023/03/20 03:17:19;;;;;;;3.92;3.53;;;;;;;;;;4570088;28;20032;-61
2023/03/20 03:19:31;;;;;;;3.20;2.83;;;;;;;;;;4570239;28;20040;-60
2023/03/20 03:21:41;;;;;;;2.80;2.50;;;;;;;;;;4568112;28;20623;-61
2023/03/20 03:23:52;;;;;;;1.65;1.52;;;;;;;;;;4569220;28;23853;-61
2023/03/20 03:26:04;;;;;;;1.45;1.35;;;;;;;;;;4586073;27;20139;-61
2023/03/20 03:28:37;;;;;;;1.05;1.00;;;;;;;;;;4568315;28;20028;-61
2023/03/20 03:30:48;;;;;;;0.55;0.55;;;;;;;;;;4569692;28;20089;-61
2023/03/20 03:33:15;;;;;;;6.82;5.38;;;;;;;;;;4583676;27;20045;-61
2023/03/20 03:35:26;;;;;;;6.55;5.55;;;;;;;;;;4566741;28;20028;-61
2023/03/20 03:37:42;;;;;;;6.22;5.45;;;;;;;;;;4555760;28;20555;-62
2023/03/20 03:40:00;;;;;;;6.13;5.07;;;;;;;;;;4542837;28;20044;-61
2023/03/20 03:42:20;;;;;;;6.03;5.18;;;;;;;;;;4552942;28;20083;-61
2023/03/20 03:44:47;;;;;;;4.55;3.95;;;;;;;;;;4570698;28;20083;-61
2023/03/20 03:47:03;;;;;;;3.53;3.20;;;;;;;;;;4549711;28;20590;-61
2023/03/20 03:49:19;;;;;;;2.87;2.30;;;;;;;;;;4550868;28;20056;-61
2023/03/20 03:51:32;;;;;;;2.47;2.05;;;;;;;;;;4550250;28;20156;-61
2023/03/20 03:53:53;;;;;;;2.03;1.80;;;;;;;;;;4568136;28;20032;-61
2023/03/20 03:56:07;;;;;;;1.65;1.52;;;;;;;;;;4549418;28;20332;-61
2023/03/20 03:58:21;;;;;;;0.82;0.80;;;;;;;;;;4545129;28;20041;-61
2023/03/20 04:00:32;;;;;;;0.65;0.65;;;;;;;;;;4551804;28;20037;-61
2023/03/20 04:02:44;;;;;;;0.60;0.60;;;;;;;;;;4533728;28;20030;-61
2023/03/20 04:04:55;;;;;;;4.70;4.22;;;;;;;;;;4550783;28;20045;-61
2023/03/20 04:07:05;;;;;;;5.53;5.00;;;;;;;;;;4535950;28;20029;-61
2023/03/20 04:09:17;;;;;;;5.35;4.80;;;;;;;;;;4567939;28;20186;-61
2023/03/20 04:11:28;;;;;;;5.18;4.57;;;;;;;;;;4567211;28;20119;-61
2023/03/20 04:13:38;;;;;;;5.57;4.68;;;;;;;;;;4543416;28;20037;-61
2023/03/20 04:15:48;;;;;;;5.10;4.60;;;;;;;;;;4533618;28;20032;-61
2023/03/20 04:17:59;;;;;;;5.32;4.82;;;;;;;;;;4549658;28;20148;-61
2023/03/20 04:20:11;;;;;;;5.07;4.57;;;;;;;;;;4549200;28;20041;-60
2023/03/20 04:22:21;;;;;;;5.30;4.70;;;;;;;;;;4552317;28;20044;-61
2023/03/20 04:24:32;;;;;;;4.95;4.45;;;;;;;;;;4539734;28;20029;-61
2023/03/20 04:26:43;;;;;;;5.25;4.55;;;;;;;;;;4545918;28;20048;-62
2023/03/20 04:28:54;;;;;;;4.97;4.47;;;;;;;;;;4549958;28;20041;-62
2023/03/20 04:31:36;;;;;;;5.18;4.53;;;;;;;;;;4532614;28;20088;-61
2023/03/20 04:34:15;;;;;;;5.43;4.90;;;;;;;;;;4552102;28;20839;-61
2023/03/20 04:36:40;;;;;;;5.53;5.03;;;;;;;;;;4567320;28;20036;-61
2023/03/20 04:38:53;;;;;;;5.25;4.70;;;;;;;;;;4549022;28;20247;-61
2023/03/20 04:41:04;;;;;;;5.22;4.72;;;;;;;;;;4558110;28;20559;-61
2023/03/20 04:43:15;;;;;;;5.30;4.80;;;;;;;;;;4566062;28;20016;-61
2023/03/20 04:45:25;;;;;;;5.50;4.90;;;;;;;;;;4549460;28;20032;-62
2023/03/20 04:47:36;;;;;;;5.40;4.90;;;;;;;;;;4565609;27;20937;-62
2023/03/20 04:49:47;;;;;;;5.20;4.70;;;;;;;;;;4568336;28;20672;-61
2023/03/20 04:51:58;;;;;;;5.60;5.03;;;;;;;;;;4584198;27;20140;-61
2023/03/20 04:54:20;;;;;;;5.45;4.90;;;;;;;;;;4565192;28;20032;-61
2023/03/20 04:56:30;;;;;;;5.20;4.70;;;;;;;;;;4553865;28;20576;-61
2023/03/20 04:58:54;;;;;;;5.60;5.05;;;;;;;;;;4569829;27;20079;-62
2023/03/20 05:01:06;;;;;;;5.15;4.65;;;;;;;;;;4566058;27;20127;-62
2023/03/20 05:03:16;;;;;;;5.25;4.75;;;;;;;;;;4569074;28;20055;-61
2023/03/20 05:05:28;;;;;;;5.55;5.03;;;;;;;;;;4566595;27;20503;-61
2023/03/20 05:07:38;;;;;;;5.35;4.85;;;;;;;;;;4561465;27;20562;-61
2023/03/20 05:09:54;;;;;;;5.80;5.20;;;;;;;;;;4585718;27;20032;-62
2023/03/20 05:12:05;;;;;;;5.45;4.95;;;;;;;;;;4567325;27;20028;-61
2023/03/20 05:14:38;;;;;;;5.40;4.90;;;;;;;;;;4558725;28;20628;-61
2023/03/20 05:17:07;;;;;;;6.03;5.30;;;;;;;;;;4568434;28;20040;-61
2023/03/20 05:19:48;;;;;;;5.93;5.22;;;;;;;;;;4567311;28;20767;-61
2023/03/20 05:22:17;;;;;;;4.50;3.92;;;;;;;;;;4565999;28;20106;-61
2023/03/20 05:24:51;;;;;;;5.38;4.88;;;;;;;;;;4556566;28;20531;-61
2023/03/20 05:27:17;;;;;;;6.28;5.68;;;;;;;;;;4566079;28;20626;-61
2023/03/20 05:29:48;;;;;;;6.20;5.60;;;;;;;;;;4555460;27;20047;-62
2023/03/20 05:32:17;;;;;;;5.95;5.35;;;;;;;;;;4567123;28;20047;-62
2023/03/20 05:34:50;;;;;;;6.18;5.20;;;;;;;;;;4568061;28;20118;-61
2023/03/20 05:37:15;;;;;;;5.20;4.55;;;;;;;;;;4568100;27;20110;-62
2023/03/20 05:39:52;;;;;;;5.20;4.70;;;;;;;;;;4566534;28;20805;-62
2023/03/20 05:42:14;;;;;;;4.78;4.28;;;;;;;;;;4552361;28;20032;-62
2023/03/20 05:44:45;;;;;;;4.95;4.15;;;;;;;;;;4512580;28;20036;-63
2023/03/20 05:46:56;;;;;;;4.68;4.10;;;;;;;;;;4551609;28;20351;-62
2023/03/20 05:49:26;;;;;;;4.45;3.80;;;;;;;;;;4565476;28;20039;-63
2023/03/20 05:51:55;;;;;;;4.05;3.53;;;;;;;;;;4540218;27;20437;-62
2023/03/20 05:54:29;;;;;;;4.85;4.05;;;;;;;;;;4564864;28;20820;-62
2023/03/20 05:57:12;;;;;;;4.25;3.47;;;;;;;;;;4515330;28;20043;-62
2023/03/20 05:59:37;;;;;;;4.00;3.60;;;;;;;;;;4551205;28;20048;-63
2023/03/20 06:02:14;;;;;;;3.78;3.22;;;;;;;;;;4548696;28;20137;-63
2023/03/20 06:04:31;;;;;;;3.45;3.00;;;;;;;;;;4565325;28;20028;-62
2023/03/20 06:06:57;;;;;;;3.67;3.20;;;;;;;;;;4562642;28;20096;-63
2023/03/20 06:09:08;;;;;;;3.35;3.00;;;;;;;;;;4546204;28;20040;-64
2023/03/20 06:11:20;;;;;;;3.45;3.15;;;;;;;;;;4528867;28;20083;-63
2023/03/20 06:13:30;;;;;;;3.75;3.33;;;;;;;;;;4511657;28;20049;-64
2023/03/20 06:15:43;;;;;;;3.65;3.25;;;;;;;;;;4530818;28;21031;-63
2023/03/20 06:17:59;;;;;;;3.35;3.05;;;;;;;;;;4528206;28;20051;-61
2023/03/20 06:20:10;;;;;;;3.40;3.10;;;;;;;;;;4520521;28;20059;-61
2023/03/20 06:22:20;;;;;;;3.65;3.10;;;;;;;;;;4530457;28;20204;-62
2023/03/20 06:24:31;;;;;;;3.28;2.97;;;;;;;;;;4527818;28;20032;-62
2023/03/20 06:26:42;;;;;;;3.53;3.22;;;;;;;;;;4511519;28;20025;-62
2023/03/20 06:28:55;;;;;;;3.40;3.00;;;;;;;;;;4547902;28;20075;-62
2023/03/20 06:31:06;;;;;;;3.10;2.80;;;;;;;;;;4530100;28;20053;-62
2023/03/20 06:33:17;;;;;;;2.92;2.65;;;;;;;;;;4550408;28;20036;-61
2023/03/20 06:35:49;;;;;;;3.40;3.10;;;;;;;;;;4551172;28;20032;-61
2023/03/20 06:37:59;;;;;;;3.58;3.03;;;;;;;;;;4518025;28;20043;-62
2023/03/20 06:40:10;;;;;;;3.10;2.80;;;;;;;;;;4546220;28;20037;-62
2023/03/20 06:42:21;;;;;;;3.10;2.80;;;;;;;;;;4547065;28;20021;-62
2023/03/20 06:44:32;;;;;;;3.08;2.75;;;;;;;;;;4565261;28;20082;-62
2023/03/20 06:47:06;;;;;;;3.05;2.70;;;;;;;;;;4555680;28;20131;-61
2023/03/20 06:49:17;;;;;;;2.90;2.60;;;;;;;;;;4551198;28;20035;-61
2023/03/20 06:51:28;;;;;;;3.10;2.80;;;;;;;;;;4553386;28;20043;-62
2023/03/20 06:53:40;;;;;;;2.83;2.60;;;;;;;;;;4548486;28;20508;-62
2023/03/20 06:55:53;;;;;;;2.47;2.28;;;;;;;;;;4533196;28;21158;-61
2023/03/20 06:58:05;;;;;;;3.03;2.63;;;;;;;;;;4532819;28;20023;-62
2023/03/20 07:00:17;;;;;;;2.67;2.47;;;;;;;;;;4547397;28;20056;-62
2023/03/20 07:02:27;;;;;;;2.40;2.20;;;;;;;;;;4547127;28;20513;-60
2023/03/20 07:04:38;;;;;;;2.83;2.53;;;;;;;;;;4565332;28;20040;-62
2023/03/20 07:06:48;;;;;;;2.50;2.30;;;;;;;;;;4530886;28;20094;-62
2023/03/20 07:09:00;;;;;;;2.60;2.30;;;;;;;;;;4568327;28;20147;-62
2023/03/20 07:11:10;;;;;;;2.95;2.40;;;;;;;;;;4536488;28;20033;-62
2023/03/20 07:13:21;;;;;;;2.38;2.17;;;;;;;;;;4550122;28;20035;-62
2023/03/20 07:15:32;;;;;;;3.00;2.70;;;;;;;;;;4549370;28;20540;-62
2023/03/20 07:17:43;;;;;;;2.60;2.40;;;;;;;;;;4564524;28;20116;-62
2023/03/20 07:19:53;;;;;;;2.63;2.40;;;;;;;;;;4563781;28;20036;-62
2023/03/20 07:22:06;;;;;;;2.60;2.25;;;;;;;;;;4565934;28;20546;-62
2023/03/20 07:24:22;;;;;;;2.90;2.42;;;;;;;;;;4568821;28;20866;-63
2023/03/20 07:26:32;;;;;;;3.72;2.75;;;;;;;;;;4551763;28;20037;-62
2023/03/20 07:28:43;;;;;;;2.90;2.60;;;;;;;;;;4531738;28;20442;-62
2023/03/20 07:30:59;;;;;;;2.83;2.58;;;;;;;;;;4550183;28;21252;-62
2023/03/20 07:33:10;;;;;;;2.95;2.50;;;;;;;;;;4551397;28;20107;-62
2023/03/20 07:35:20;;;;;;;2.95;2.60;;;;;;;;;;4550190;28;20024;-62
2023/03/20 07:37:30;;;;;;;2.70;2.50;;;;;;;;;;4568401;28;20016;-62
2023/03/20 07:39:45;;;;;;;2.88;2.58;;;;;;;;;;4550857;27;20078;-62
2023/03/20 07:42:12;;;;;;;2.88;2.58;;;;;;;;;;4549861;28;20035;-62
2023/03/20 07:44:33;;;;;;;2.55;2.30;;;;;;;;;;4548966;28;20045;-62
2023/03/20 07:46:47;;;;;;;2.67;2.30;;;;;;;;;;4568940;28;20039;-63
2023/03/20 07:48:59;;;;;;;2.50;2.30;;;;;;;;;;4515310;28;20052;-63
2023/03/20 07:51:09;;;;;;;2.85;2.38;;;;;;;;;;4551321;28;20037;-63
2023/03/20 07:53:20;;;;;;;2.72;2.42;;;;;;;;;;4565884;28;20066;-63
2023/03/20 07:55:32;;;;;;;3.00;2.40;;;;;;;;;;4544208;28;20033;-63
2023/03/20 07:57:43;;;;;;;2.90;2.60;;;;;;;;;;4547688;28;20037;-63
2023/03/20 07:59:53;;;;;;;2.95;2.65;;;;;;;;;;4549806;28;20054;-63
2023/03/20 08:02:04;;;;;;;2.70;2.50;;;;;;;;;;4543192;28;21083;-63
2023/03/20 08:04:18;;;;;;;3.08;2.70;;;;;;;;;;4566263;28;20050;-61
2023/03/20 08:06:28;;;;;;;2.80;2.53;;;;;;;;;;4566500;28;20197;-61
2023/03/20 08:08:39;;;;;;;2.70;2.40;;;;;;;;;;4549825;28;20055;-61
2023/03/20 08:10:50;;;;;;;2.80;2.53;;;;;;;;;;4548241;28;20036;-61
2023/03/20 08:13:00;;;;;;;2.70;2.40;;;;;;;;;;4551160;28;20036;-61
2023/03/20 08:15:11;;;;;;;2.90;2.50;;;;;;;;;;4567357;28;20028;-62
2023/03/20 08:17:21;;;;;;;2.67;2.35;;;;;;;;;;4568601;28;20032;-63
2023/03/20 08:19:32;;;;;;;2.72;2.50;;;;;;;;;;4548920;28;20613;-63
2023/03/20 08:21:42;;;;;;;3.22;2.70;;;;;;;;;;4569116;28;20109;-62
2023/03/20 08:23:53;;;;;;;2.72;2.42;;;;;;;;;;4549639;28;20040;-62
2023/03/20 08:26:04;;;;;;;2.95;2.65;;;;;;;;;;4567277;28;20028;-62
2023/03/20 08:28:15;;;;;;;2.50;2.20;;;;;;;;;;4542453;28;20363;-62
2023/03/20 08:30:26;;;;;;;2.55;2.35;;;;;;;;;;4498965;28;20079;-63
2023/03/20 08:32:37;;;;;;;2.85;2.55;;;;;;;;;;4566755;28;20051;-62
2023/03/20 08:34:48;;;;;;;2.22;2.03;;;;;;;;;;4567664;28;20032;-62
2023/03/20 08:36:58;;;;;;;2.60;2.40;;;;;;;;;;4569340;28;20064;-62
2023/03/20 08:39:09;;;;;;;2.72;2.10;;;;;;;;;;4567260;28;20032;-62
2023/03/20 08:41:19;;;;;;;2.25;1.90;;;;;;;;;;4567116;28;20025;-62
2023/03/20 08:43:30;;;;;;;2.53;2.33;;;;;;;;;;4548301;28;20330;-62
2023/03/20 08:45:40;;;;;;;2.40;2.08;;;;;;;;;;4567491;28;23461;-62
2023/03/20 08:47:51;;;;;;;2.42;2.22;;;;;;;;;;4568705;28;20032;-62
2023/03/20 08:50:03;;;;;;;2.40;2.20;;;;;;;;;;4537108;28;20615;-62
2023/03/20 08:52:13;;;;;;;2.70;2.20;;;;;;;;;;4565869;28;20028;-62
2023/03/20 08:54:24;;;;;;;2.30;2.10;;;;;;;;;;4552171;28;20474;-61
2023/03/20 08:56:34;;;;;;;2.45;2.08;;;;;;;;;;4559628;28;20040;-60
2023/03/20 08:58:45;;;;;;;2.42;2.08;;;;;;;;;;4531318;28;20037;-62
2023/03/20 09:00:55;;;;;;;2.45;2.10;;;;;;;;;;4566447;28;20036;-62
2023/03/20 09:03:06;;;;;;;2.50;1.90;;;;;;;;;;4565442;28;20037;-62
2023/03/20 09:05:16;;;;;;;2.20;2.00;;;;;;;;;;4567641;28;20040;-61
2023/03/20 09:07:27;;;;;;;2.38;2.10;;;;;;;;;;4565978;28;20039;-62
2023/03/20 09:09:37;;;;;;;2.17;1.80;;;;;;;;;;4567243;28;20031;-62
2023/03/20 09:11:48;;;;;;;2.15;1.95;;;;;;;;;;4549885;27;20056;-62
2023/03/20 09:13:58;;;;;;;1.90;1.77;;;;;;;;;;4509440;28;20109;-62
2023/03/20 09:16:09;;;;;;;3.03;1.83;;;;;;;;;;4547967;28;20187;-62
2023/03/20 09:18:19;;;;;;;2.00;1.73;;;;;;;;;;4567816;28;24280;-65
2023/03/20 09:20:30;;;;;;;2.08;1.80;;;;;;;;;;4549372;28;20045;-63
2023/03/20 09:22:42;;;;;;;1.88;1.77;;;;;;;;;;4566366;28;20089;-63
2023/03/20 09:24:53;;;;;;;2.20;1.83;;;;;;;;;;4566184;28;20238;-62
2023/03/20 09:27:03;;;;;;;1.85;1.60;;;;;;;;;;4566562;28;20036;-63
2023/03/20 09:29:13;;;;;;;2.20;2.00;;;;;;;;;;4547283;28;20043;-62
2023/03/20 09:31:24;;;;;;;2.50;2.10;;;;;;;;;;4566642;28;20512;-63
2023/03/20 09:33:34;;;;;;;2.63;1.95;;;;;;;;;;4566558;28;20040;-63
2023/03/20 09:35:45;;;;;;;2.28;2.00;;;;;;;;;;4565732;28;20043;-63
2023/03/20 09:37:56;;;;;;;1.83;1.67;;;;;;;;;;4565681;28;20386;-63
2023/03/20 09:40:07;;;;;;;2.05;1.70;;;;;;;;;;4564038;27;20044;-63
2023/03/20 09:42:55;;;;;;;2.40;1.95;;;;;;;;;;4566980;28;20763;-62
2023/03/20 09:45:12;;;;;;;2.25;1.83;;;;;;;;;;4565551;28;20036;-63
2023/03/20 09:47:41;;;;;;;1.90;1.50;;;;;;;;;;4564929;28;20123;-63
2023/03/20 09:50:20;;;;;;;2.33;1.77;;;;;;;;;;4565989;28;20040;-63
2023/03/20 09:52:35;;;;;;;1.65;1.55;;;;;;;;;;4551769;28;20507;-63
2023/03/20 09:54:52;;;;;;;2.03;1.63;;;;;;;;;;4545303;28;20670;-62
2023/03/20 09:57:03;;;;;;;1.75;1.42;;;;;;;;;;4547014;28;20044;-62
2023/03/20 09:59:15;;;;;;;1.80;1.58;;;;;;;;;;4547580;28;20104;-62
2023/03/20 10:01:30;;;;;;;1.80;1.60;;;;;;;;;;4530912;28;20073;-63
2023/03/20 10:03:47;;;;;;;1.73;1.40;;;;;;;;;;4548139;28;20032;-62
2023/03/20 10:06:02;;;;;;;1.60;1.50;;;;;;;;;;4524972;28;20309;-63
2023/03/20 10:08:17;;;;;;;1.48;1.38;;;;;;;;;;4546470;28;20056;-62
2023/03/20 10:10:41;;;;;;;1.70;1.60;;;;;;;;;;4548834;28;20040;-62
2023/03/20 10:13:01;;;;;;;1.58;1.45;;;;;;;;;;4566002;28;20054;-62
2023/03/20 10:15:33;;;;;;;2.08;1.35;;;;;;;;;;4547855;28;20580;-63
2023/03/20 10:17:57;;;;;;;1.65;1.55;;;;;;;;;;4565256;28;20666;-63
2023/03/20 10:20:31;;;;;;;1.52;1.25;;;;;;;;;;4566151;28;20044;-62
2023/03/20 10:22:50;;;;;;;1.40;1.30;;;;;;;;;;4566815;28;20036;-62
2023/03/20 10:25:14;;;;;;;2.05;1.50;;;;;;;;;;4531741;28;20152;-62
2023/03/20 10:27:31;;;;;;;1.80;1.48;;;;;;;;;;4564492;28;20779;-63
2023/03/20 10:30:11;;;;;;;1.40;1.30;;;;;;;;;;4547760;28;20132;-62
2023/03/20 10:32:46;;;;;;;1.60;1.50;;;;;;;;;;4564603;28;20081;-62
2023/03/20 10:35:15;;;;;;;1.42;1.30;;;;;;;;;;4529702;28;20113;-62
2023/03/20 10:37:34;;;;;;;1.48;1.35;;;;;;;;;;4565696;28;20032;-62
2023/03/20 10:39:53;;;;;;;1.40;1.30;;;;;;;;;;4548113;28;20158;-59
2023/03/20 10:42:12;;;;;;;1.60;1.50;;;;;;;;;;4533232;28;20164;-60
2023/03/20 10:44:34;;;;;;;0.95;0.90;;;;;;;;;;4565288;28;20043;-62
2023/03/20 10:46:48;;;;;;;1.20;1.10;;;;;;;;;;4550594;28;20047;-62
2023/03/20 10:49:07;;;;;;;1.63;1.13;;;;;;;;;;4566309;28;20507;-61
2023/03/20 10:51:21;;;;;;;1.25;1.00;;;;;;;;;;4551094;28;20639;-62
2023/03/20 10:53:44;;;;;;;1.08;0.90;;;;;;;;;;4549277;28;20033;-62
2023/03/20 10:55:58;;;;;;;1.15;0.93;;;;;;;;;;4537562;28;20017;-62
2023/03/20 10:58:21;;;;;;;1.30;1.10;;;;;;;;;;4545192;28;20059;-63
2023/03/20 11:00:32;;;;;;;1.20;1.02;;;;;;;;;;4548034;28;20045;-63
2023/03/20 11:02:43;;;;;;;1.33;1.23;;;;;;;;;;4567856;28;20036;-63
2023/03/20 11:04:53;;;;;;;1.17;1.00;;;;;;;;;;4566113;28;20036;-63
2023/03/20 11:07:22;;;;;;;1.30;1.20;;;;;;;;;;4547815;28;20164;-62
2023/03/20 11:09:33;;;;;;;1.50;1.35;;;;;;;;;;4564000;28;20066;-62
2023/03/20 11:11:46;;;;;;;1.25;1.15;;;;;;;;;;4565220;28;20855;-64
2023/03/20 11:13:57;;;;;;;1.77;1.30;;;;;;;;;;4564466;28;20083;-60
2023/03/20 11:16:22;;;;;;;1.48;1.10;;;;;;;;;;4547446;28;20680;-60
2023/03/20 11:18:33;;;;;;;1.52;1.25;;;;;;;;;;4533794;28;20037;-61
2023/03/20 11:20:47;;;;;;;1.30;1.20;;;;;;;;;;4564263;28;23574;-60
2023/03/20 11:23:01;;;;;;;1.30;1.20;;;;;;;;;;4525607;28;20037;-60
2023/03/20 11:25:24;;;;;;;1.50;1.30;;;;;;;;;;4549382;28;20041;-60
2023/03/20 11:27:35;;;;;;;1.20;1.10;;;;;;;;;;4564098;28;20275;-61
2023/03/20 11:29:47;;;;;;;1.52;1.30;;;;;;;;;;4562627;28;20038;-60
2023/03/20 11:32:16;;;;;;;1.70;1.55;;;;;;;;;;4546101;28;20028;-60
2023/03/20 11:34:35;;;;;;;1.40;1.30;;;;;;;;;;4540058;28;20695;-61
2023/03/20 11:36:54;;;;;;;1.33;1.20;;;;;;;;;;4531955;28;20192;-61
2023/03/20 11:39:21;;;;;;;1.63;1.35;;;;;;;;;;4566988;28;20240;-61
2023/03/20 11:41:32;;;;;;;1.73;1.40;;;;;;;;;;4563395;28;20063;-60
2023/03/20 11:43:42;;;;;;;1.77;1.50;;;;;;;;;;4567586;28;20139;-60
2023/03/20 11:45:56;;;;;;;1.70;1.40;;;;;;;;;;4567644;27;20036;-60
2023/03/20 11:48:15;;;;;;;1.83;1.67;;;;;;;;;;4581414;27;21261;-60
2023/03/20 11:50:41;;;;;;;1.63;1.40;;;;;;;;;;4583327;27;21434;-62
2023/03/20 11:52:52;;;;;;;1.60;1.50;;;;;;;;;;4567695;28;20047;-60
2023/03/20 11:55:06;;;;;;;1.50;1.38;;;;;;;;;;4567027;28;20583;-63
2023/03/20 11:57:37;;;;;;;1.30;1.20;;;;;;;;;;4564824;28;20029;-64
2023/03/20 11:59:47;;;;;;;1.58;1.48;;;;;;;;;;4582256;27;20036;-61
2023/03/20 12:01:59;;;;;;;1.67;1.50;;;;;;;;;;4565793;28;23695;-60
2023/03/20 12:04:14;;;;;;;1.40;1.30;;;;;;;;;;4564787;28;20833;-60
2023/03/20 12:06:27;;;;;;;1.40;1.30;;;;;;;;;;4569143;28;20036;-61
2023/03/20 12:08:38;;;;;;;1.70;1.20;;;;;;;;;;4567562;28;20135;-60
2023/03/20 12:10:59;;;;;;;1.55;1.42;;;;;;;;;;4568043;28;20036;-60
2023/03/20 12:13:17;;;;;;;1.38;1.27;;;;;;;;;;4567519;28;20039;-60
2023/03/20 12:15:31;;;;;;;1.40;1.30;;;;;;;;;;4569059;28;20669;-60
2023/03/20 12:17:57;;;;;;;1.95;1.30;;;;;;;;;;4547851;28;20519;-60
2023/03/20 12:20:19;;;;;;;2.85;1.45;;;;;;;;;;4566750;28;21103;-61
2023/03/20 12:22:37;;;;;;;1.38;1.25;;;;;;;;;;4567147;28;20067;-60
2023/03/20 12:25:12;;;;;;;1.83;1.40;;;;;;;;;;4568756;27;20041;-60
2023/03/20 12:27:34;;;;;;;1.40;1.30;;;;;;;;;;4567161;28;20130;-61
2023/03/20 12:29:53;;;;;;;2.00;1.40;;;;;;;;;;4566083;28;20573;-60
2023/03/20 12:32:14;;;;;;;2.50;2.30;;;;;;;;;;4565353;28;20712;-60
2023/03/20 12:34:34;;;;;;;1.50;1.40;;;;;;;;;;4567527;28;20040;-61
2023/03/20 12:36:47;;;;;;;1.27;1.15;;;;;;;;;;4568475;28;20033;-61
2023/03/20 12:39:00;;;;;;;1.50;1.20;;;;;;;;;;4565905;28;20537;-60
2023/03/20 12:41:39;;;;;;;1.30;1.20;;;;;;;;;;4564690;28;20109;-60
2023/03/20 12:44:07;;;;;;;1.40;1.30;;;;;;;;;;4583495;27;20089;-61
2023/03/20 12:46:25;;;;;;;1.48;1.23;;;;;;;;;;4564402;27;20032;-60
2023/03/20 12:48:50;;;;;;;1.98;1.38;;;;;;;;;;4566039;28;20089;-61
2023/03/20 12:51:14;;;;;;;1.27;1.10;;;;;;;;;;4566268;27;20111;-61
2023/03/20 12:54:07;;;;;;;1.27;1.17;;;;;;;;;;4566041;27;20143;-61
2023/03/20 12:56:33;;;;;;;1.45;1.27;;;;;;;;;;4514158;28;20670;-61
2023/03/20 12:58:47;;;;;;;1.00;1.00;;;;;;;;;;4553813;28;20573;-60
2023/03/20 13:01:03;;;;;;;1.60;1.20;;;;;;;;;;4567956;28;20109;-61
2023/03/20 13:03:51;;;;;;;1.27;0.95;;;;;;;;;;4565343;28;20552;-61
2023/03/20 13:06:30;;;;;;;1.02;0.90;;;;;;;;;;4568872;28;20035;-60
2023/03/20 13:08:58;;;;;;;0.90;0.90;;;;;;;;;;4567522;28;20125;-60
2023/03/20 13:11:19;;;;;;;0.85;0.85;;;;;;;;;;4567486;28;20626;-60
2023/03/20 13:13:35;;;;;;;1.10;1.00;;;;;;;;;;4565679;28;20079;-61
2023/03/20 13:16:03;;;;;;;1.40;1.10;;;;;;;;;;4567269;27;20595;-60
2023/03/20 13:18:22;;;;;;;1.27;0.90;;;;;;;;;;4565556;28;20495;-60
2023/03/20 13:20:39;;;;;;;1.45;1.00;;;;;;;;;;4565971;28;20041;-59
2023/03/20 13:23:04;;;;;;;1.27;0.95;;;;;;;;;;4567879;28;20039;-61
2023/03/20 13:25:49;;;;;;;0.82;0.80;;;;;;;;;;4566734;28;20499;-61
2023/03/20 13:28:13;;;;;;;1.67;1.20;;;;;;;;;;4567750;28;20031;-62
2023/03/20 13:30:33;;;;;;;1.08;0.90;;;;;;;;;;4565796;28;20841;-61
2023/03/20 13:32:51;;;;;;;1.20;1.00;;;;;;;;;;4548866;28;20048;-62
2023/03/20 13:35:42;;;;;;;1.58;1.00;;;;;;;;;;4570069;28;20060;-63
2023/03/20 13:38:00;;;;;;;0.93;0.82;;;;;;;;;;4541596;28;20051;-61
2023/03/20 13:40:18;;;;;;;1.02;0.90;;;;;;;;;;4549319;28;20044;-61
2023/03/20 13:42:36;;;;;;;0.70;0.70;;;;;;;;;;4567996;28;20032;-61